LRBC/BCM METAR and TAF weather

Enter ICAO airport designator
Station Type Date Time Source
LRBC METAR 2021/09/24 06:00 UTC NOAA

LRBC 240600Z 14007KT CAVOK 12/07 Q1011


Station Type Date Time Source
LRBC Decoded METAR 2021/09/24 06:00 UTC NOAA

Bacau, Romania (LRBC) 46-35N 026-58E 190M
Sep 24, 2021 - 02:00 AM EDT / 2021.09.24 0600 UTC
Wind: from the SE (140 degrees) at 8 MPH (7 KT):0
Visibility: greater than 7 mile(s):0
Temperature: 53 F (12 C)
Dew Point: 44 F (7 C)
Relative Humidity: 71%
Pressure (altimeter): 29.85 in. Hg (1011 hPa)
ob: LRBC 240600Z 14007KT CAVOK 12/07 Q1011
cycle: 6

Station Type Date Time Source
LRBC TAF 2010/08/31 20:30 UTC NOAA

TAF LRBC 312030Z 3121/0203 CNL

Example: see airport list